Time;durP1;ratioP1;P1;durP2;ratioP2;P2;SDS_P1;SDS_P2;PMS_P1;PMS_P2;Temp;Humidity;BMP_temperature;BMP_pressure;BME280_temperature;BME280_humidity;BME280_pressure;Samples;Min_cycle;Max_cycle;Signal;HPM_P1;HPM_P2
2021/12/05 00:22:13;;;;;;;19.67;15.80;;;3.80;99.90;;;;;;5034112;28;20216;-46
2021/12/05 00:24:44;;;;;;;23.20;17.35;;;4.00;99.90;;;;;;5032842;28;20197;-49
2021/12/05 00:27:16;;;;;;;23.48;17.27;;;4.10;99.90;;;;;;5032803;28;20209;-48
2021/12/05 00:29:50;;;;;;;23.35;16.88;;;4.10;99.90;;;;;;5033567;28;20208;-47
2021/12/05 00:32:25;;;;;;;20.55;16.27;;;4.00;99.90;;;;;;5032359;28;20253;-48
2021/12/05 00:41:09;;;;;;;24.30;15.55;;;4.10;99.90;;;;;;4971740;28;20253;-49
2021/12/05 00:46:29;;;;;;;22.10;15.63;;;4.00;99.90;;;;;;5018835;28;20638;-48
2021/12/05 00:55:07;;;;;;;18.70;14.45;;;4.00;99.90;;;;;;5025716;28;20196;-46
2021/12/05 00:57:54;;;;;;;18.75;14.65;;;4.20;99.90;;;;;;5030838;28;20231;-49
2021/12/05 01:00:34;;;;;;;19.30;14.73;;;4.20;99.90;;;;;;5030874;28;20291;-47
2021/12/05 01:03:18;;;;;;;20.17;15.27;;;4.00;99.90;;;;;;5030821;28;20226;-49
2021/12/05 01:11:35;;;;;;;21.55;15.50;;;4.50;99.90;;;;;;5031712;28;20287;-48
2021/12/05 01:14:22;;;;;;;20.25;16.90;;;4.40;99.90;;;;;;5031974;28;20611;-47
2021/12/05 01:16:50;;;;;;;22.42;15.73;;;4.20;99.90;;;;;;5031987;28;20196;-47
2021/12/05 01:19:20;;;;;;;21.95;15.98;;;4.00;99.90;;;;;;5031002;28;20220;-47
2021/12/05 01:21:52;;;;;;;19.00;15.00;;;4.10;99.90;;;;;;5030242;28;20212;-47
2021/12/05 01:24:28;;;;;;;18.52;15.40;;;4.10;99.90;;;;;;5031812;28;20199;-47
2021/12/05 01:27:01;;;;;;;19.95;15.80;;;3.90;99.90;;;;;;5027496;28;20280;-48
2021/12/05 01:29:38;;;;;;;17.88;14.57;;;4.00;99.90;;;;;;5010554;28;20224;-47
2021/12/05 01:32:17;;;;;;;26.10;18.02;;;4.20;99.90;;;;;;5010830;28;20201;-47
2021/12/05 01:34:55;;;;;;;24.10;17.52;;;4.10;99.90;;;;;;5012294;28;20235;-48
2021/12/05 01:37:35;;;;;;;23.13;16.98;;;4.20;99.90;;;;;;5010894;28;20288;-47
2021/12/05 01:40:30;;;;;;;19.42;14.82;;;4.50;99.90;;;;;;5010868;28;20205;-47
2021/12/05 01:46:17;;;;;;;21.50;16.13;;;3.50;99.90;;;;;;5011829;28;20193;-47
2021/12/05 01:49:10;;;;;;;19.88;15.15;;;3.90;99.90;;;;;;5010743;28;20260;-49
2021/12/05 01:54:43;;;;;;;21.10;15.90;;;4.00;99.90;;;;;;5010407;28;20211;-52
2021/12/05 01:57:35;;;;;;;22.83;17.00;;;4.10;99.90;;;;;;5011848;28;20193;-49
2021/12/05 02:00:29;;;;;;;23.63;17.80;;;3.70;99.90;;;;;;5010362;28;20645;-49
2021/12/05 02:07:45;;;;;;;25.60;19.42;;;4.20;99.90;;;;;;5021214;28;20277;-49
2021/12/05 02:09:11;;;;;;;27.55;18.52;;;3.90;99.90;;;;;;5029440;28;20217;-49
2021/12/05 02:12:05;;;;;;;27.27;20.63;;;4.30;99.90;;;;;;5030280;28;20709;-49
2021/12/05 02:31:30;;;;;;;29.00;21.48;;;4.20;99.90;;;;;;5030994;28;20645;-50
2021/12/05 02:34:10;;;;;;;28.40;21.15;;;4.40;99.90;;;;;;5033716;28;20213;-48
2021/12/05 02:36:53;;;;;;;30.63;22.20;;;4.20;99.90;;;;;;5035835;28;20200;-49
2021/12/05 02:39:30;;;;;;;29.00;21.83;;;4.30;99.90;;;;;;5035699;28;20860;-49
2021/12/05 02:42:07;;;;;;;28.13;19.98;;;4.30;99.90;;;;;;5034770;28;20188;-49
2021/12/05 02:44:35;;;;;;;32.35;23.38;;;4.20;99.90;;;;;;5033595;28;20222;-49
2021/12/05 02:47:10;;;;;;;25.85;20.83;;;4.20;99.90;;;;;;5033474;28;20619;-49
2021/12/05 02:49:41;;;;;;;32.08;23.02;;;4.30;99.90;;;;;;5033014;28;20661;-49
2021/12/05 02:52:16;;;;;;;31.85;23.17;;;4.20;99.90;;;;;;5033448;28;20565;-50
2021/12/05 02:54:48;;;;;;;30.00;21.30;;;4.10;99.90;;;;;;5034560;28;20209;-49
2021/12/05 02:57:30;;;;;;;27.63;22.05;;;4.20;99.90;;;;;;5033288;28;20238;-48
2021/12/05 02:59:59;;;;;;;30.48;21.08;;;4.20;99.90;;;;;;5033008;28;20207;-48
2021/12/05 03:02:37;;;;;;;30.58;22.60;;;4.20;99.90;;;;;;5032957;28;20311;-49
2021/12/05 03:05:08;;;;;;;27.98;22.45;;;4.40;99.90;;;;;;5033279;28;20200;-49
2021/12/05 03:07:39;;;;;;;31.83;22.83;;;4.40;99.90;;;;;;5032954;28;20240;-48
2021/12/05 03:10:11;;;;;;;32.67;23.38;;;4.20;99.90;;;;;;5033087;28;20687;-49
2021/12/05 03:12:39;;;;;;;30.48;22.10;;;4.40;99.90;;;;;;5034269;28;20188;-49
2021/12/05 03:15:09;;;;;;;38.22;22.77;;;3.70;99.90;;;;;;5032799;28;20201;-49
2021/12/05 03:17:37;;;;;;;33.03;23.15;;;4.30;99.90;;;;;;5032612;28;20232;-49
2021/12/05 03:20:07;;;;;;;30.98;23.30;;;4.10;99.90;;;;;;5032715;28;20213;-49
2021/12/05 03:22:34;;;;;;;35.30;25.27;;;4.20;99.90;;;;;;5033979;28;20224;-49
2021/12/05 03:25:02;;;;;;;31.67;23.27;;;3.90;99.90;;;;;;5032998;28;20200;-49
2021/12/05 03:27:32;;;;;;;32.03;23.95;;;4.20;99.90;;;;;;5032661;28;20255;-48
2021/12/05 03:30:00;;;;;;;37.97;25.63;;;4.10;99.90;;;;;;5032261;28;20208;-49
2021/12/05 03:32:27;;;;;;;30.27;23.88;;;4.20;99.90;;;;;;5033878;28;20556;-49
2021/12/05 03:34:54;;;;;;;33.88;24.35;;;4.00;99.90;;;;;;5033993;28;20196;-49
2021/12/05 03:37:22;;;;;;;36.00;25.42;;;4.00;99.90;;;;;;5032497;28;20200;-49
2021/12/05 03:39:50;;;;;;;35.35;26.60;;;4.20;99.90;;;;;;5032330;28;20640;-49
2021/12/05 03:42:18;;;;;;;33.65;23.85;;;3.80;99.90;;;;;;5032519;28;20235;-49
2021/12/05 03:44:46;;;;;;;33.60;25.05;;;4.10;99.90;;;;;;5031731;28;20204;-49
2021/12/05 03:47:15;;;;;;;31.92;24.88;;;4.10;99.90;;;;;;5032195;28;20208;-48
2021/12/05 03:49:42;;;;;;;32.30;25.35;;;4.20;99.90;;;;;;5033071;28;20200;-50
2021/12/05 03:52:12;;;;;;;33.90;25.65;;;4.30;99.90;;;;;;5032258;28;20208;-50
2021/12/05 03:54:40;;;;;;;32.42;25.25;;;4.10;99.90;;;;;;5032265;28;20204;-49
2021/12/05 03:57:07;;;;;;;31.50;23.83;;;3.90;99.90;;;;;;5032017;28;20286;-49
2021/12/05 03:59:36;;;;;;;29.15;22.92;;;4.10;99.90;;;;;;5033042;28;20679;-49
2021/12/05 04:02:06;;;;;;;32.63;24.55;;;4.10;99.90;;;;;;5032065;28;20197;-49
2021/12/05 04:04:35;;;;;;;36.33;25.30;;;3.70;99.90;;;;;;5032053;28;20243;-50
2021/12/05 04:07:03;;;;;;;32.10;24.15;;;4.30;99.90;;;;;;5032038;28;20209;-50
2021/12/05 04:09:32;;;;;;;33.17;23.55;;;4.40;99.90;;;;;;5031502;28;20307;-50
2021/12/05 04:12:02;;;;;;;33.13;23.88;;;4.30;99.90;;;;;;5031881;28;20205;-49
2021/12/05 04:14:39;;;;;;;34.92;24.65;;;4.30;99.90;;;;;;5031842;28;20200;-49
2021/12/05 04:17:10;;;;;;;33.42;23.75;;;3.70;99.90;;;;;;5033147;28;20299;-49
2021/12/05 04:19:38;;;;;;;32.38;23.60;;;4.50;99.90;;;;;;5031055;28;20208;-49
2021/12/05 04:22:06;;;;;;;34.00;24.80;;;4.40;99.90;;;;;;5032904;28;20571;-49
2021/12/05 04:24:34;;;;;;;35.72;25.10;;;3.80;99.90;;;;;;5031566;28;20232;-48
2021/12/05 04:27:01;;;;;;;33.38;24.52;;;4.30;99.90;;;;;;5028029;28;20732;-48
2021/12/05 04:29:28;;;;;;;33.60;25.50;;;4.40;99.90;;;;;;5011315;28;20243;-48
2021/12/05 04:31:56;;;;;;;38.83;26.50;;;4.20;99.90;;;;;;5011674;28;20193;-49
2021/12/05 04:34:22;;;;;;;34.28;24.25;;;4.30;99.90;;;;;;5011804;28;20293;-49
2021/12/05 04:36:55;;;;;;;38.67;26.67;;;4.20;99.90;;;;;;5011763;28;20232;-49
2021/12/05 04:39:23;;;;;;;31.08;25.00;;;4.20;99.90;;;;;;5011330;28;20280;-49
2021/12/05 04:41:50;;;;;;;37.58;25.33;;;4.50;99.90;;;;;;5011555;28;20248;-49
2021/12/05 04:44:17;;;;;;;35.88;25.52;;;4.20;99.90;;;;;;5011481;28;20224;-49
2021/12/05 04:46:45;;;;;;;38.45;25.42;;;4.20;99.90;;;;;;5011561;28;20228;-49
2021/12/05 04:49:15;;;;;;;39.15;25.63;;;4.50;99.90;;;;;;5011145;28;20252;-49
2021/12/05 04:51:44;;;;;;;32.08;24.50;;;3.90;99.90;;;;;;5011215;28;20658;-49
2021/12/05 04:54:15;;;;;;;37.60;26.38;;;4.50;99.90;;;;;;5011477;28;20288;-50
2021/12/05 04:56:44;;;;;;;39.20;26.52;;;4.40;99.90;;;;;;5010637;28;20578;-48
2021/12/05 04:59:18;;;;;;;34.55;26.27;;;4.40;99.90;;;;;;5011109;28;20279;-49
2021/12/05 05:01:47;;;;;;;35.80;25.73;;;4.30;99.90;;;;;;5010999;28;20570;-48
2021/12/05 05:04:23;;;;;;;37.22;26.38;;;4.30;99.90;;;;;;5032349;28;20220;-49
2021/12/05 05:06:50;;;;;;;32.85;24.95;;;4.30;99.90;;;;;;5032047;28;20572;-48
2021/12/05 05:09:17;;;;;;;35.20;25.65;;;4.30;99.90;;;;;;5031616;28;20295;-49
2021/12/05 05:11:44;;;;;;;36.78;26.17;;;4.30;99.90;;;;;;5031917;28;20553;-49
2021/12/05 05:14:12;;;;;;;33.20;25.40;;;4.50;99.90;;;;;;5031826;28;20196;-48
2021/12/05 05:16:38;;;;;;;34.92;26.85;;;4.40;99.90;;;;;;5031754;28;20284;-49
2021/12/05 05:19:05;;;;;;;32.90;24.95;;;4.20;99.90;;;;;;5031978;28;20224;-49
2021/12/05 05:21:42;;;;;;;41.28;27.80;;;4.20;99.90;;;;;;5033768;28;20193;-49
2021/12/05 05:24:34;;;;;;;36.03;25.63;;;4.10;99.90;;;;;;5032007;28;20688;-48
2021/12/05 05:27:35;;;;;;;35.30;24.83;;;3.60;99.90;;;;;;5031508;28;20263;-48
2021/12/05 05:44:08;;;;;;;36.30;27.25;;;3.70;99.90;;;;;;5030100;28;20244;-48
2021/12/05 05:46:51;;;;;;;39.17;26.13;;;4.00;99.90;;;;;;5031731;28;20677;-48
2021/12/05 05:49:21;;;;;;;37.35;26.00;;;4.10;99.90;;;;;;5030830;28;20224;-48
2021/12/05 05:51:48;;;;;;;35.83;26.73;;;4.20;99.90;;;;;;5031439;28;20602;-48
2021/12/05 05:54:17;;;;;;;37.35;27.15;;;4.10;99.90;;;;;;5031482;28;20192;-49
2021/12/05 05:56:45;;;;;;;38.25;26.77;;;4.30;99.90;;;;;;5031534;28;20235;-48
2021/12/05 05:59:18;;;;;;;38.95;27.25;;;4.00;99.90;;;;;;5030901;28;20223;-49
2021/12/05 06:03:18;;;;;;;39.80;28.30;;;4.20;99.90;;;;;;5031255;28;20200;-49
2021/12/05 06:04:44;;;;;;;42.10;27.73;;;4.20;99.90;;;;;;5030000;28;20232;-49
2021/12/05 06:07:11;;;;;;;38.28;27.23;;;4.00;99.90;;;;;;5032741;28;20212;-49
2021/12/05 06:09:39;;;;;;;38.63;27.25;;;4.20;99.90;;;;;;5035185;28;20196;-49
2021/12/05 06:12:07;;;;;;;45.83;28.90;;;4.00;99.90;;;;;;5035665;28;20197;-49
2021/12/05 06:14:34;;;;;;;43.20;26.95;;;4.10;99.90;;;;;;5035325;28;20284;-48
2021/12/05 06:17:00;;;;;;;38.70;29.13;;;3.90;99.90;;;;;;5034049;28;20207;-49
2021/12/05 06:19:27;;;;;;;39.47;28.65;;;3.90;99.90;;;;;;5034549;28;20587;-49
2021/12/05 06:21:54;;;;;;;44.65;30.15;;;3.60;99.90;;;;;;5035071;28;20328;-49
2021/12/05 06:24:23;;;;;;;39.03;28.05;;;4.00;99.90;;;;;;5035032;28;20228;-49
2021/12/05 06:26:51;;;;;;;45.58;28.98;;;4.00;99.90;;;;;;5034740;28;20200;-49
2021/12/05 06:29:20;;;;;;;45.65;29.55;;;3.90;99.90;;;;;;5034561;28;20361;-49
2021/12/05 06:31:58;;;;;;;41.15;27.65;;;3.90;99.90;;;;;;5033609;28;20201;-49
2021/12/05 06:37:28;;;;;;;41.80;27.38;;;4.10;99.90;;;;;;5033484;28;20205;-49
2021/12/05 06:40:17;;;;;;;40.20;27.90;;;3.90;99.90;;;;;;5034543;28;20196;-49
2021/12/05 06:43:01;;;;;;;37.00;25.67;;;3.90;99.90;;;;;;5035873;28;20199;-49
2021/12/05 06:48:12;;;;;;;41.42;27.05;;;3.70;99.90;;;;;;5034237;28;20231;-50
2021/12/05 06:50:39;;;;;;;34.42;26.10;;;3.80;99.90;;;;;;5034756;28;20566;-49
2021/12/05 06:53:07;;;;;;;37.17;26.35;;;3.80;99.90;;;;;;5034546;28;20196;-49
2021/12/05 06:55:34;;;;;;;40.03;26.73;;;3.90;99.90;;;;;;5034363;28;20196;-50
2021/12/05 06:58:02;;;;;;;36.65;25.92;;;3.40;99.90;;;;;;5034182;28;20719;-49
2021/12/05 07:00:31;;;;;;;41.50;28.17;;;3.90;99.90;;;;;;5034430;28;20661;-49
2021/12/05 07:02:57;;;;;;;39.88;27.25;;;3.20;99.90;;;;;;5034102;28;20204;-50
2021/12/05 07:05:40;;;;;;;37.10;25.98;;;3.60;99.90;;;;;;5034392;28;20201;-49
2021/12/05 07:08:10;;;;;;;40.95;25.63;;;3.70;99.90;;;;;;5032530;28;20282;-49
2021/12/05 07:10:44;;;;;;;33.25;23.85;;;3.80;99.90;;;;;;5034291;28;20621;-49
2021/12/05 07:16:01;;;;;;;35.67;25.75;;;3.80;99.90;;;;;;5032964;28;20598;-49
2021/12/05 07:21:12;;;;;;;38.57;26.70;;;3.80;99.90;;;;;;5034143;28;20735;-49
2021/12/05 07:23:48;;;;;;;33.33;25.13;;;3.70;99.90;;;;;;5034155;28;20220;-50
2021/12/05 07:26:21;;;;;;;38.65;25.90;;;3.10;99.90;;;;;;5029391;28;20209;-49
2021/12/05 07:42:35;;;;;;;35.17;27.10;;;3.60;99.90;;;;;;5014002;28;20205;-50
2021/12/05 07:45:06;;;;;;;38.53;27.85;;;3.50;99.90;;;;;;5013823;28;20296;-50
2021/12/05 07:47:34;;;;;;;38.65;26.58;;;3.50;99.90;;;;;;5013559;28;20272;-50
2021/12/05 07:50:06;;;;;;;41.97;29.10;;;4.10;99.90;;;;;;5012929;28;20209;-50
2021/12/05 07:52:34;;;;;;;43.47;29.45;;;3.60;99.90;;;;;;5013475;28;20194;-50
2021/12/05 07:55:09;;;;;;;45.30;28.75;;;3.80;99.90;;;;;;5013718;28;20217;-50
2021/12/05 07:57:46;;;;;;;43.45;27.83;;;3.90;99.90;;;;;;5013503;28;20315;-49
2021/12/05 08:00:21;;;;;;;38.28;26.25;;;3.70;99.90;;;;;;5013756;28;20247;-49
2021/12/05 08:16:31;;;;;;;39.40;27.88;;;3.90;99.90;;;;;;5032986;28;20280;-49
2021/12/05 08:18:59;;;;;;;42.83;27.70;;;3.70;99.90;;;;;;5031306;28;20563;-49
2021/12/05 08:21:26;;;;;;;43.83;27.77;;;3.50;99.90;;;;;;5032856;28;20291;-49
2021/12/05 08:23:53;;;;;;;42.03;28.08;;;4.00;99.90;;;;;;5032492;28;20216;-49
2021/12/05 08:26:25;;;;;;;38.72;26.13;;;3.80;99.90;;;;;;5032538;28;20212;-49
2021/12/05 08:29:03;;;;;;;39.67;27.08;;;4.00;99.90;;;;;;5032346;28;20216;-50
2021/12/05 08:31:41;;;;;;;40.67;27.80;;;4.00;99.90;;;;;;5032806;28;20668;-50
2021/12/05 08:34:28;;;;;;;43.42;29.17;;;3.90;99.90;;;;;;5033030;28;20192;-49
2021/12/05 08:37:25;;;;;;;41.92;28.60;;;3.70;99.90;;;;;;5033137;28;20262;-49
2021/12/05 08:40:17;;;;;;;44.22;28.92;;;3.40;99.90;;;;;;5032402;28;20724;-49
2021/12/05 09:24:33;;;;;;;58.92;35.05;;;4.00;99.90;;;;;;5032263;28;20248;-48
2021/12/05 09:27:44;;;;;;;54.67;33.25;;;4.30;99.90;;;;;;5031934;28;20208;-50
2021/12/05 09:30:26;;;;;;;46.42;30.90;;;4.50;99.90;;;;;;5032040;28;20578;-50
2021/12/05 09:39:08;;;;;;;53.03;33.38;;;4.30;99.90;;;;;;5031415;28;20243;-48
2021/12/05 10:06:49;;;;;;;60.47;35.45;;;4.50;99.90;;;;;;5031000;28;20197;-50
2021/12/05 10:09:36;;;;;;;64.45;34.55;;;5.00;99.90;;;;;;5029617;28;20217;-50
2021/12/05 10:12:23;;;;;;;65.70;36.47;;;4.40;99.90;;;;;;5031274;28;20277;-48
2021/12/05 10:15:13;;;;;;;54.13;34.08;;;4.40;99.90;;;;;;5031460;28;20193;-50
2021/12/05 10:18:27;;;;;;;57.72;33.08;;;4.60;99.90;;;;;;5031673;28;20221;-49
2021/12/05 10:26:56;;;;;;;55.03;32.00;;;4.70;99.90;;;;;;5031317;28;20266;-48
2021/12/05 10:35:20;;;;;;;47.90;31.50;;;4.20;99.90;;;;;;5030831;28;20299;-49
2021/12/05 10:37:51;;;;;;;57.28;33.58;;;4.70;99.90;;;;;;5030970;28;20232;-49
2021/12/05 10:40:21;;;;;;;51.55;33.63;;;5.00;99.90;;;;;;5030991;28;20292;-48
2021/12/05 10:42:50;;;;;;;50.08;30.30;;;5.10;99.90;;;;;;5030599;28;20558;-49
2021/12/05 10:45:35;;;;;;;53.47;33.05;;;5.10;99.90;;;;;;5032581;28;20661;-49
2021/12/05 10:48:06;;;;;;;55.85;32.95;;;5.20;99.90;;;;;;5030559;28;20220;-49
2021/12/05 10:50:39;;;;;;;55.83;35.20;;;5.10;99.90;;;;;;5031561;28;20589;-50
2021/12/05 10:53:35;;;;;;;53.72;32.70;;;5.10;99.90;;;;;;5031053;28;20410;-49
2021/12/05 10:56:12;;;;;;;47.30;31.75;;;5.20;99.90;;;;;;4978668;28;20213;-49
2021/12/05 10:58:48;;;;;;;54.77;32.17;;;5.30;99.90;;;;;;5034792;28;20700;-49
2021/12/05 11:01:20;;;;;;;52.90;32.57;;;4.90;99.90;;;;;;5034555;28;20439;-49
2021/12/05 11:03:50;;;;;;;52.00;30.77;;;4.50;99.90;;;;;;5034239;28;20442;-49
2021/12/05 11:06:40;;;;;;;48.70;31.52;;;5.10;99.90;;;;;;5033997;28;20193;-48
2021/12/05 11:09:10;;;;;;;56.05;32.40;;;5.10;99.90;;;;;;5034036;28;20287;-49
2021/12/05 11:11:37;;;;;;;51.07;32.87;;;5.20;99.90;;;;;;5034225;28;20198;-49
2021/12/05 11:14:09;;;;;;;48.47;30.03;;;4.90;99.90;;;;;;5033966;28;20440;-49
2021/12/05 11:16:45;;;;;;;53.10;34.70;;;5.20;99.90;;;;;;5034312;28;20427;-49
2021/12/05 11:19:16;;;;;;;54.60;34.72;;;5.00;99.90;;;;;;5033569;28;20220;-49
2021/12/05 11:21:47;;;;;;;58.50;34.50;;;4.90;99.90;;;;;;5033957;28;20203;-50
2021/12/05 11:24:17;;;;;;;55.97;34.67;;;5.30;99.90;;;;;;5032863;28;20479;-50
2021/12/05 11:26:47;;;;;;;57.95;35.47;;;5.00;99.90;;;;;;5034153;28;20672;-49
2021/12/05 11:29:13;;;;;;;55.85;35.80;;;4.90;99.90;;;;;;5033790;28;20588;-49
2021/12/05 11:31:42;;;;;;;52.65;33.25;;;5.10;99.90;;;;;;5033717;28;20196;-49
2021/12/05 11:34:09;;;;;;;54.63;34.40;;;5.10;99.90;;;;;;5032214;28;20554;-50
2021/12/05 11:36:38;;;;;;;54.38;35.15;;;5.00;99.90;;;;;;5033803;28;20196;-50
2021/12/05 11:39:22;;;;;;;59.28;35.40;;;4.80;99.90;;;;;;5033339;28;20228;-49
2021/12/05 11:41:49;;;;;;;52.92;34.65;;;5.00;99.90;;;;;;5033243;28;20231;-51
2021/12/05 11:44:18;;;;;;;57.20;33.90;;;5.00;99.90;;;;;;5033356;28;20225;-48
2021/12/05 11:46:47;;;;;;;55.13;33.65;;;4.60;99.90;;;;;;5033188;28;20197;-49
2021/12/05 11:49:17;;;;;;;59.08;35.30;;;5.30;99.90;;;;;;5032761;28;20640;-49
2021/12/05 11:51:47;;;;;;;55.53;35.13;;;4.90;99.90;;;;;;5032124;28;20679;-49
2021/12/05 11:54:17;;;;;;;57.80;35.95;;;4.40;99.90;;;;;;5033476;28;20493;-49
2021/12/05 11:56:49;;;;;;;56.55;35.63;;;4.30;99.90;;;;;;5033297;28;20209;-50
2021/12/05 11:59:23;;;;;;;58.45;35.90;;;5.30;99.90;;;;;;5033284;28;20235;-48
2021/12/05 12:01:55;;;;;;;55.30;34.70;;;4.80;99.90;;;;;;5033052;28;20251;-48
2021/12/05 12:04:25;;;;;;;52.72;35.08;;;4.80;99.90;;;;;;5034156;28;20887;-50
2021/12/05 12:07:10;;;;;;;56.22;35.88;;;4.80;99.90;;;;;;5032937;28;20201;-49
2021/12/05 12:09:37;;;;;;;57.53;36.97;;;4.70;99.90;;;;;;5032288;28;20212;-49
2021/12/05 12:12:04;;;;;;;62.55;37.95;;;4.70;99.90;;;;;;5032417;28;20192;-49
2021/12/05 12:14:31;;;;;;;62.97;37.80;;;4.40;99.90;;;;;;5032854;28;20670;-49
2021/12/05 12:16:59;;;;;;;60.65;36.85;;;4.60;99.90;;;;;;5033585;28;20193;-50
2021/12/05 12:19:26;;;;;;;61.60;36.55;;;4.50;99.90;;;;;;5032686;28;20274;-50
2021/12/05 12:21:57;;;;;;;58.45;36.65;;;4.60;99.90;;;;;;5032868;28;20192;-49
2021/12/05 12:24:25;;;;;;;51.80;33.53;;;4.70;99.90;;;;;;5033571;28;20239;-50
2021/12/05 12:26:53;;;;;;;58.72;36.38;;;4.50;99.90;;;;;;5033014;28;20208;-51
2021/12/05 12:29:20;;;;;;;55.60;32.33;;;4.60;99.90;;;;;;5032259;28;20275;-51
2021/12/05 12:31:50;;;;;;;59.95;33.70;;;4.40;99.90;;;;;;5032581;28;20262;-50
2021/12/05 12:34:21;;;;;;;51.53;33.15;;;4.60;99.90;;;;;;5033356;28;20204;-50
2021/12/05 12:36:50;;;;;;;55.50;35.97;;;4.60;99.90;;;;;;5033731;28;20208;-52
2021/12/05 12:39:31;;;;;;;54.15;33.05;;;4.30;99.90;;;;;;5033120;28;20219;-48
2021/12/05 12:42:05;;;;;;;56.25;35.88;;;4.40;99.90;;;;;;5031147;28;20695;-47
2021/12/05 12:44:32;;;;;;;49.50;32.90;;;3.80;99.90;;;;;;5032610;28;20650;-47
2021/12/05 12:47:01;;;;;;;54.97;34.15;;;3.90;99.90;;;;;;5032869;28;20577;-49
2021/12/05 12:49:33;;;;;;;49.20;31.77;;;4.30;99.90;;;;;;5032147;28;20546;-47
2021/12/05 12:52:03;;;;;;;52.25;32.92;;;4.20;99.90;;;;;;5032825;28;20262;-48
2021/12/05 12:54:35;;;;;;;51.40;31.92;;;4.40;99.90;;;;;;5033323;28;20201;-47
2021/12/05 12:57:12;;;;;;;54.58;32.90;;;4.40;99.90;;;;;;5033732;28;20208;-47
2021/12/05 12:59:41;;;;;;;52.95;32.15;;;4.50;99.90;;;;;;5032043;28;20284;-48
2021/12/05 13:02:28;;;;;;;56.47;34.53;;;4.40;99.90;;;;;;5030815;28;20676;-47
2021/12/05 13:10:39;;;;;;;53.33;33.35;;;3.90;99.90;;;;;;5032151;28;20196;-46
2021/12/05 13:13:14;;;;;;;54.60;31.75;;;4.30;99.90;;;;;;5031704;28;20291;-48
2021/12/05 13:15:44;;;;;;;57.88;35.17;;;4.60;99.90;;;;;;5032201;28;20654;-47
2021/12/05 13:18:28;;;;;;;57.22;33.90;;;4.30;99.90;;;;;;5031680;28;20217;-48
2021/12/05 13:21:01;;;;;;;56.10;35.95;;;4.50;99.90;;;;;;5033406;28;20200;-47
2021/12/05 13:23:38;;;;;;;59.45;33.80;;;4.40;99.90;;;;;;5032724;28;20208;-48
2021/12/05 13:26:13;;;;;;;58.80;35.80;;;4.50;99.90;;;;;;5032929;28;20220;-47
2021/12/05 13:28:44;;;;;;;61.90;35.70;;;4.00;99.90;;;;;;5032630;28;20231;-47
2021/12/05 13:31:31;;;;;;;61.88;36.58;;;4.30;99.90;;;;;;5033609;28;20200;-47
2021/12/05 13:34:30;;;;;;;60.83;36.85;;;4.40;99.90;;;;;;5032286;28;20511;-46
2021/12/05 13:37:22;;;;;;;59.90;36.78;;;4.30;99.90;;;;;;5030836;28;20213;-48
2021/12/05 13:39:52;;;;;;;57.42;36.58;;;4.50;99.90;;;;;;5030662;28;20204;-48
2021/12/05 13:42:22;;;;;;;62.75;36.63;;;4.20;99.90;;;;;;5031417;28;20235;-48
2021/12/05 13:45:14;;;;;;;58.08;35.90;;;4.10;99.90;;;;;;5030471;28;20204;-48
2021/12/05 13:47:44;;;;;;;61.88;39.58;;;4.20;99.90;;;;;;5030142;28;20316;-47
2021/12/05 13:50:33;;;;;;;59.22;38.63;;;4.70;99.90;;;;;;5031044;28;20205;-49
2021/12/05 13:53:20;;;;;;;62.05;36.10;;;4.40;99.90;;;;;;5030712;28;20204;-50
2021/12/05 13:55:59;;;;;;;68.05;38.22;;;4.20;99.90;;;;;;5031081;28;20193;-50
2021/12/05 13:58:28;;;;;;;64.53;37.63;;;4.40;99.90;;;;;;5030790;28;20767;-50
2021/12/05 14:00:58;;;;;;;64.68;37.90;;;4.40;99.90;;;;;;5031118;28;20661;-50
2021/12/05 14:03:57;;;;;;;59.28;35.08;;;4.20;99.90;;;;;;5030691;28;20203;-49
2021/12/05 14:06:29;;;;;;;60.38;35.95;;;3.80;99.90;;;;;;5031262;28;20231;-50
2021/12/05 14:09:01;;;;;;;56.78;36.90;;;4.30;99.90;;;;;;5029407;28;20315;-50
2021/12/05 14:11:29;;;;;;;59.50;37.28;;;4.60;99.90;;;;;;5030895;28;20197;-50
2021/12/05 14:13:55;;;;;;;53.80;32.40;;;4.10;99.90;;;;;;5030755;28;20208;-50
2021/12/05 14:16:31;;;;;;;55.67;35.20;;;4.30;99.90;;;;;;5031000;28;20193;-50
2021/12/05 14:18:57;;;;;;;53.50;34.25;;;4.10;99.90;;;;;;5030598;28;20738;-51
2021/12/05 14:21:26;;;;;;;50.45;32.55;;;3.90;99.90;;;;;;5029299;28;20204;-49
2021/12/05 14:23:55;;;;;;;49.30;33.55;;;4.30;99.90;;;;;;5030798;28;20192;-50
2021/12/05 14:26:26;;;;;;;56.20;35.10;;;3.70;99.90;;;;;;5030783;28;20223;-49
2021/12/05 14:28:59;;;;;;;50.33;33.45;;;4.10;99.90;;;;;;5032966;28;20212;-49
2021/12/05 14:31:29;;;;;;;51.08;33.33;;;4.20;99.90;;;;;;5035075;28;20209;-49
2021/12/05 14:33:57;;;;;;;56.58;35.70;;;4.30;99.90;;;;;;5034672;28;20208;-50
2021/12/05 14:36:26;;;;;;;55.83;34.40;;;4.10;99.90;;;;;;5034646;28;20208;-49
2021/12/05 14:39:08;;;;;;;54.00;32.95;;;4.10;99.90;;;;;;5034521;28;20642;-49
2021/12/05 14:41:36;;;;;;;50.28;32.22;;;4.60;99.90;;;;;;5035011;28;20211;-50
2021/12/05 14:44:04;;;;;;;47.45;31.00;;;4.40;99.90;;;;;;5034893;28;20204;-50
2021/12/05 14:46:31;;;;;;;56.67;33.17;;;4.30;99.90;;;;;;5034216;28;20224;-50
2021/12/05 14:49:01;;;;;;;56.83;32.90;;;4.20;99.90;;;;;;5033958;28;20232;-50
2021/12/05 14:51:33;;;;;;;55.58;34.88;;;4.00;99.90;;;;;;5033992;28;20232;-50
2021/12/05 14:54:00;;;;;;;54.13;34.85;;;4.10;99.90;;;;;;5034268;28;20215;-50
2021/12/05 14:56:33;;;;;;;53.70;35.00;;;4.00;99.90;;;;;;5034253;28;20193;-49
2021/12/05 14:59:10;;;;;;;53.83;36.85;;;4.30;99.90;;;;;;5034135;28;20227;-49
2021/12/05 15:01:38;;;;;;;56.60;35.50;;;4.20;99.90;;;;;;5034202;28;20196;-49
2021/12/05 15:04:07;;;;;;;51.40;33.63;;;4.60;99.90;;;;;;5034501;28;20208;-49
2021/12/05 15:06:37;;;;;;;49.70;32.25;;;4.10;99.90;;;;;;5034133;28;20223;-50
2021/12/05 15:09:08;;;;;;;59.92;33.90;;;4.50;99.90;;;;;;5033921;28;20220;-49
2021/12/05 15:11:35;;;;;;;52.95;33.25;;;4.50;99.90;;;;;;5034142;28;20200;-50
2021/12/05 15:14:07;;;;;;;63.08;33.78;;;4.10;99.90;;;;;;5034003;28;20208;-50
2021/12/05 15:16:34;;;;;;;65.35;37.85;;;4.20;99.90;;;;;;5034218;28;20195;-51
2021/12/05 15:19:01;;;;;;;55.20;33.67;;;3.90;99.90;;;;;;5033985;28;20545;-48
2021/12/05 15:21:30;;;;;;;58.60;34.42;;;4.10;99.90;;;;;;5033724;28;20208;-49
2021/12/05 15:23:57;;;;;;;58.58;34.10;;;4.10;99.90;;;;;;5033686;28;20245;-49
2021/12/05 15:26:32;;;;;;;59.70;36.28;;;4.20;99.90;;;;;;5033987;28;20555;-51
2021/12/05 15:29:03;;;;;;;58.03;34.25;;;3.50;99.90;;;;;;5032930;28;20245;-49
2021/12/05 15:31:37;;;;;;;61.20;34.40;;;3.70;99.90;;;;;;5033689;28;20251;-49
2021/12/05 15:34:25;;;;;;;61.33;36.08;;;3.90;99.90;;;;;;5033153;28;20197;-49
2021/12/05 15:36:53;;;;;;;59.95;33.47;;;3.90;99.90;;;;;;5033286;28;20193;-50
2021/12/05 15:39:23;;;;;;;55.47;34.88;;;4.00;99.90;;;;;;5032522;28;20265;-50
2021/12/05 15:41:52;;;;;;;66.00;36.70;;;3.90;99.90;;;;;;5032758;28;20259;-49
2021/12/05 15:44:28;;;;;;;59.05;34.92;;;3.90;99.90;;;;;;5033260;28;20196;-50
2021/12/05 15:47:06;;;;;;;59.65;34.88;;;3.80;99.90;;;;;;5032995;28;20681;-50
2021/12/05 15:49:52;;;;;;;56.63;34.28;;;4.00;99.90;;;;;;5030680;28;20308;-49
2021/12/05 15:52:23;;;;;;;61.67;34.85;;;4.00;99.90;;;;;;5033177;28;20208;-49
2021/12/05 15:54:51;;;;;;;65.57;36.45;;;4.00;99.90;;;;;;5032919;28;20574;-50
2021/12/05 15:57:26;;;;;;;57.00;36.08;;;3.90;99.90;;;;;;5032816;28;20220;-50
2021/12/05 15:59:53;;;;;;;65.72;36.80;;;3.80;99.90;;;;;;5033113;28;20288;-50
2021/12/05 16:02:21;;;;;;;74.10;37.78;;;3.80;99.90;;;;;;5034032;28;20200;-49
2021/12/05 16:04:49;;;;;;;63.92;37.95;;;4.00;99.90;;;;;;5033543;28;20224;-50
2021/12/05 16:07:17;;;;;;;65.10;36.97;;;3.90;99.90;;;;;;5032720;28;20642;-50
2021/12/05 16:09:46;;;;;;;67.72;38.75;;;3.40;99.90;;;;;;5032699;28;20208;-50
2021/12/05 16:12:15;;;;;;;64.30;37.97;;;3.60;99.90;;;;;;5033315;28;20208;-49
2021/12/05 16:14:45;;;;;;;58.83;33.28;;;3.90;99.90;;;;;;5032211;28;20244;-49
2021/12/05 16:17:17;;;;;;;69.53;36.17;;;3.80;99.90;;;;;;5033094;28;20688;-49
2021/12/05 16:20:18;;;;;;;68.53;36.85;;;4.00;99.90;;;;;;5032596;28;20208;-49
2021/12/05 16:23:08;;;;;;;67.15;35.67;;;3.50;99.90;;;;;;5032233;28;20204;-51
2021/12/05 16:25:36;;;;;;;65.35;37.28;;;4.00;99.90;;;;;;5032458;28;20197;-49
2021/12/05 16:28:06;;;;;;;64.95;36.83;;;4.00;99.90;;;;;;5031812;28;20220;-50
2021/12/05 16:30:36;;;;;;;64.78;34.63;;;3.90;99.90;;;;;;5032893;28;20188;-49
2021/12/05 16:33:04;;;;;;;62.55;33.63;;;3.80;99.90;;;;;;5032218;28;20204;-49
2021/12/05 16:35:36;;;;;;;63.83;35.17;;;3.70;99.90;;;;;;5032036;28;20665;-49
2021/12/05 16:38:17;;;;;;;69.93;37.45;;;3.70;99.90;;;;;;5032312;28;20567;-49